createdAt,value
2019-02-18T00:01:00.843Z,8.80
2019-02-18T00:03:29.810Z,8.90
2019-02-18T00:05:58.433Z,9.00
2019-02-18T00:08:27.110Z,8.90
2019-02-18T00:10:55.738Z,8.90
2019-02-18T00:13:24.416Z,8.90
2019-02-18T00:15:53.109Z,9.00
2019-02-18T00:18:21.881Z,9.00
2019-02-18T00:20:50.744Z,9.00
2019-02-18T00:23:19.459Z,9.00
2019-02-18T00:25:48.399Z,9.00
2019-02-18T00:28:17.049Z,9.00
2019-02-18T00:30:45.702Z,9.00
2019-02-18T00:33:14.354Z,9.00
2019-02-18T00:35:42.975Z,9.20
2019-02-18T00:38:12.119Z,9.20
2019-02-18T00:40:40.742Z,9.30
2019-02-18T00:43:09.471Z,9.40
2019-02-18T00:45:38.134Z,9.30
2019-02-18T00:48:06.881Z,9.20
2019-02-18T00:50:35.507Z,9.20
2019-02-18T00:53:04.271Z,9.20
2019-02-18T00:55:33.031Z,9.20
2019-02-18T00:58:01.695Z,9.20
2019-02-18T01:00:30.355Z,9.20
2019-02-18T01:02:59.312Z,9.20
2019-02-18T01:05:27.945Z,9.10
2019-02-18T01:07:56.905Z,9.10
2019-02-18T01:10:25.835Z,9.10
2019-02-18T01:12:54.495Z,9.00
2019-02-18T01:15:23.191Z,9.00
2019-02-18T01:17:51.863Z,8.90
2019-02-18T01:20:20.510Z,8.90
2019-02-18T01:22:49.142Z,8.90
2019-02-18T01:25:17.779Z,8.80
2019-02-18T01:27:46.465Z,8.80
2019-02-18T01:30:15.443Z,8.80
2019-02-18T01:32:44.592Z,8.80
2019-02-18T01:35:14.648Z,8.80
2019-02-18T01:37:46.016Z,8.70
2019-02-18T01:40:14.504Z,8.70
2019-02-18T01:42:43.464Z,8.70
2019-02-18T01:45:13.098Z,8.70
2019-02-18T01:47:41.722Z,8.70
2019-02-18T01:50:12.438Z,8.70
2019-02-18T01:52:41.129Z,8.70
2019-02-18T01:55:11.039Z,8.60
2019-02-18T01:57:39.791Z,8.60
2019-02-18T02:00:14.119Z,8.50
2019-02-18T02:02:43.216Z,8.50
2019-02-18T02:05:13.170Z,8.50
2019-02-18T02:07:41.808Z,8.50
2019-02-18T02:10:11.719Z,8.40
2019-02-18T02:12:40.355Z,8.30
2019-02-18T02:15:21.314Z,8.40
2019-02-18T02:17:49.965Z,8.30
2019-02-18T02:20:18.601Z,8.20
2019-02-18T02:22:47.244Z,8.20
2019-02-18T02:25:15.868Z,8.20
2019-02-18T02:27:44.497Z,8.30
2019-02-18T02:30:13.296Z,8.20
2019-02-18T02:32:41.997Z,8.30
2019-02-18T02:35:10.636Z,8.30
2019-02-18T02:37:39.672Z,8.40
2019-02-18T02:40:08.939Z,8.50
2019-02-18T02:42:37.654Z,8.40
2019-02-18T02:45:06.869Z,8.40
2019-02-18T02:47:35.485Z,8.40
2019-02-18T02:50:04.529Z,8.30
2019-02-18T02:52:33.196Z,8.30
2019-02-18T02:55:02.100Z,8.30
2019-02-18T02:57:30.755Z,8.20
2019-02-18T02:59:59.518Z,8.20
2019-02-18T03:02:28.157Z,8.20
2019-02-18T03:04:56.806Z,8.10
2019-02-18T03:07:25.440Z,8.10
2019-02-18T03:09:54.065Z,8.00
2019-02-18T03:12:22.729Z,8.00
2019-02-18T03:14:51.442Z,7.90
2019-02-18T03:17:20.122Z,7.90
2019-02-18T03:19:48.767Z,7.90
2019-02-18T03:22:17.461Z,7.90
2019-02-18T03:25:23.538Z,7.90
2019-02-18T03:27:55.779Z,7.90
2019-02-18T03:30:43.023Z,7.80
2019-02-18T03:33:13.133Z,7.90
2019-02-18T03:35:41.797Z,7.80
2019-02-18T03:38:10.741Z,7.80
2019-02-18T03:40:39.377Z,7.90
2019-02-18T03:43:08.070Z,7.90
2019-02-18T03:45:37.031Z,7.90
2019-02-18T03:48:05.660Z,7.90
2019-02-18T03:50:34.307Z,7.90
2019-02-18T03:53:02.930Z,8.00
2019-02-18T03:55:31.634Z,7.90
2019-02-18T03:58:00.265Z,7.90
2019-02-18T04:00:28.903Z,7.90
2019-02-18T04:02:57.607Z,7.90
2019-02-18T04:05:26.339Z,7.90
2019-02-18T04:07:55.011Z,7.90
2019-02-18T04:10:23.647Z,7.90
2019-02-18T04:12:52.316Z,7.90
2019-02-18T04:15:20.983Z,7.90
2019-02-18T04:17:49.623Z,7.80
2019-02-18T04:20:18.273Z,7.80
2019-02-18T04:22:46.930Z,7.80
2019-02-18T04:25:15.627Z,7.80
2019-02-18T04:27:44.277Z,7.80
2019-02-18T04:30:13.758Z,7.70
2019-02-18T04:32:42.848Z,7.70
2019-02-18T04:35:11.522Z,7.70
2019-02-18T04:37:40.644Z,7.60
2019-02-18T04:40:09.666Z,7.70
2019-02-18T04:42:38.315Z,7.60
2019-02-18T04:45:07.119Z,7.60
2019-02-18T04:47:35.750Z,7.50
2019-02-18T04:50:04.779Z,7.50
2019-02-18T04:52:33.508Z,7.40
2019-02-18T04:55:02.151Z,7.40
2019-02-18T04:57:31.583Z,7.30
2019-02-18T05:00:00.370Z,7.20
2019-02-18T05:02:29.143Z,7.20
2019-02-18T05:04:57.767Z,7.20
2019-02-18T05:07:26.415Z,7.20
2019-02-18T05:09:55.051Z,7.20
2019-02-18T05:12:23.797Z,7.20
2019-02-18T05:14:52.552Z,7.10
2019-02-18T05:17:21.217Z,7.10
2019-02-18T05:19:49.843Z,7.10
2019-02-18T05:22:18.507Z,7.10
2019-02-18T05:24:47.295Z,7.10
2019-02-18T05:27:19.732Z,7.10
2019-02-18T05:29:48.343Z,7.00
2019-02-18T05:32:17.309Z,7.00
2019-02-18T05:34:45.942Z,7.00
2019-02-18T05:37:14.951Z,7.00
2019-02-18T05:39:43.594Z,7.00
2019-02-18T05:42:12.262Z,6.90
2019-02-18T05:44:40.893Z,6.80
2019-02-18T05:47:09.552Z,6.80
2019-02-18T05:49:38.200Z,6.90
2019-02-18T05:52:06.850Z,6.90
2019-02-18T05:54:35.501Z,6.90
2019-02-18T05:57:04.143Z,6.80
2019-02-18T05:59:32.860Z,6.80
2019-02-18T06:02:01.920Z,6.80
2019-02-18T06:04:30.609Z,6.70
2019-02-18T06:06:59.264Z,6.70
2019-02-18T06:09:30.068Z,6.70
2019-02-18T06:11:58.591Z,6.70
2019-02-18T06:14:27.244Z,6.60
2019-02-18T06:16:55.887Z,6.70
2019-02-18T06:19:24.528Z,6.60
2019-02-18T06:21:53.181Z,6.60
2019-02-18T06:24:21.851Z,6.60
2019-02-18T06:26:50.521Z,6.60
2019-02-18T06:29:19.158Z,6.60
2019-02-18T06:31:48.336Z,6.60
2019-02-18T06:34:17.279Z,6.50
2019-02-18T06:36:45.944Z,6.40
2019-02-18T06:39:14.587Z,6.40
2019-02-18T06:41:43.246Z,6.40
2019-02-18T06:44:11.990Z,6.40
2019-02-18T06:46:51.842Z,6.40
2019-02-18T06:49:23.091Z,6.30
2019-02-18T06:51:51.724Z,6.30
2019-02-18T06:54:20.375Z,6.30
2019-02-18T06:57:20.378Z,6.30
2019-02-18T06:59:54.758Z,6.30
2019-02-18T07:02:42.539Z,6.20
2019-02-18T07:05:20.147Z,6.20
2019-02-18T07:08:08.238Z,6.20
2019-02-18T07:10:51.896Z,6.20
2019-02-18T07:13:20.543Z,6.20
2019-02-18T07:15:49.309Z,6.30
2019-02-18T07:18:18.205Z,6.30
2019-02-18T07:20:46.939Z,6.40
2019-02-18T07:23:15.677Z,6.40
2019-02-18T07:25:44.316Z,6.40
2019-02-18T07:28:13.036Z,6.40
2019-02-18T07:30:41.707Z,6.40
2019-02-18T07:33:10.347Z,6.50
2019-02-18T07:35:38.989Z,6.50
2019-02-18T07:38:07.615Z,6.60
2019-02-18T07:40:36.253Z,7.00
2019-02-18T07:43:04.915Z,6.90
2019-02-18T07:45:33.658Z,6.90
2019-02-18T07:48:02.558Z,6.80
2019-02-18T07:50:31.320Z,6.90
2019-02-18T07:53:01.705Z,6.90
2019-02-18T07:55:30.315Z,6.90
2019-02-18T07:57:58.972Z,6.90
2019-02-18T08:00:27.842Z,7.00
2019-02-18T08:02:56.786Z,7.00
2019-02-18T08:05:25.400Z,7.10
2019-02-18T08:07:54.312Z,7.10
2019-02-18T08:10:22.967Z,7.10
2019-02-18T08:12:51.887Z,7.20
2019-02-18T08:15:20.564Z,7.30
2019-02-18T08:17:49.312Z,7.30
2019-02-18T08:20:18.003Z,7.40
2019-02-18T08:22:46.656Z,7.50
2019-02-18T08:25:15.271Z,7.60
2019-02-18T08:27:43.944Z,7.50
2019-02-18T08:30:13.155Z,7.60
2019-02-18T08:32:41.817Z,7.70
2019-02-18T08:35:11.067Z,7.80
2019-02-18T08:37:39.719Z,7.80
2019-02-18T08:40:08.527Z,7.80
2019-02-18T08:42:37.140Z,7.80
2019-02-18T08:45:07.571Z,7.90
2019-02-18T08:47:36.221Z,7.90
2019-02-18T08:50:05.608Z,8.00
2019-02-18T08:52:34.276Z,8.00
2019-02-18T08:55:03.033Z,8.10
2019-02-18T08:57:31.667Z,8.20
2019-02-18T09:00:00.349Z,8.20
2019-02-18T09:02:29.034Z,8.30
2019-02-18T09:04:57.679Z,8.40
2019-02-18T09:07:26.314Z,8.50
2019-02-18T09:09:54.993Z,8.60
2019-02-18T09:12:23.662Z,8.70
2019-02-18T09:14:52.351Z,8.80
2019-02-18T09:17:21.011Z,8.90
2019-02-18T09:19:49.735Z,9.00
2019-02-18T09:22:52.971Z,9.10
2019-02-18T09:25:24.587Z,9.30
2019-02-18T09:27:53.219Z,9.40
2019-02-18T09:30:25.765Z,9.50
2019-02-18T09:32:54.387Z,9.50
2019-02-18T09:35:23.165Z,9.60
2019-02-18T09:37:51.809Z,9.70
2019-02-18T09:40:20.500Z,9.90
2019-02-18T09:42:49.292Z,9.90
2019-02-18T09:45:17.916Z,10.00
2019-02-18T09:47:46.669Z,10.00
2019-02-18T09:50:15.388Z,10.10
2019-02-18T09:52:44.032Z,10.20
2019-02-18T09:55:12.672Z,10.30
2019-02-18T09:57:41.313Z,10.50
2019-02-18T10:00:10.447Z,10.60
2019-02-18T10:02:39.231Z,10.70
2019-02-18T10:05:08.235Z,10.70
2019-02-18T10:07:36.878Z,10.70
2019-02-18T10:10:06.016Z,10.70
2019-02-18T10:12:34.632Z,10.70
2019-02-18T10:15:03.331Z,10.70
2019-02-18T10:17:32.238Z,10.70
2019-02-18T10:20:00.940Z,10.80
2019-02-18T10:22:29.579Z,10.90
2019-02-18T10:24:58.219Z,10.90
2019-02-18T10:27:26.894Z,11.00
2019-02-18T10:29:55.581Z,11.00
2019-02-18T10:32:24.505Z,11.10
2019-02-18T10:34:53.139Z,11.20
2019-02-18T10:37:21.763Z,11.20
2019-02-18T10:39:50.411Z,11.40
2019-02-18T10:42:19.035Z,11.50
2019-02-18T10:44:47.683Z,11.60
2019-02-18T10:47:16.794Z,11.60
2019-02-18T10:49:46.683Z,11.60
2019-02-18T10:52:15.352Z,11.60
2019-02-18T10:54:44.066Z,11.70
2019-02-18T10:57:13.116Z,11.90
2019-02-18T10:59:41.775Z,12.00
2019-02-18T11:02:10.944Z,12.10
2019-02-18T11:04:39.602Z,12.20
2019-02-18T11:07:08.300Z,12.30
2019-02-18T11:09:36.939Z,12.30
2019-02-18T11:12:05.627Z,12.40
2019-02-18T11:14:34.321Z,12.50
2019-02-18T11:17:02.964Z,12.80
2019-02-18T11:19:31.627Z,12.90
2019-02-18T11:22:00.255Z,13.10
2019-02-18T11:24:29.223Z,13.40
2019-02-18T11:26:59.391Z,14.20
2019-02-18T11:29:28.104Z,15.40
2019-02-18T11:31:56.735Z,15.70
2019-02-18T11:34:25.393Z,17.20
2019-02-18T11:36:54.012Z,17.40
2019-02-18T11:39:22.688Z,17.80
2019-02-18T11:41:51.295Z,18.60
2019-02-18T11:44:19.978Z,19.00
2019-02-18T11:46:48.620Z,19.50
2019-02-18T11:49:17.256Z,20.20
2019-02-18T11:51:45.923Z,20.50
2019-02-18T11:54:14.855Z,21.30
2019-02-18T11:56:43.592Z,22.30
2019-02-18T11:59:12.212Z,22.70
2019-02-18T12:01:41.132Z,22.00
2019-02-18T12:04:09.770Z,22.90
2019-02-18T12:06:38.428Z,24.10
2019-02-18T12:09:07.329Z,24.90
2019-02-18T12:11:38.383Z,24.50
2019-02-18T12:14:06.707Z,26.20
2019-02-18T12:16:35.334Z,26.70
2019-02-18T12:19:03.955Z,27.20
2019-02-18T12:21:32.608Z,26.30
2019-02-18T12:24:01.227Z,25.50
2019-02-18T12:26:30.400Z,25.10
2019-02-18T12:28:59.328Z,25.30
2019-02-18T12:31:27.974Z,27.00
2019-02-18T12:33:56.708Z,27.20
2019-02-18T12:36:25.347Z,27.20
2019-02-18T12:38:53.979Z,27.40
2019-02-18T12:41:23.031Z,26.50
2019-02-18T12:43:51.679Z,27.00
2019-02-18T12:46:20.336Z,28.10
2019-02-18T12:48:48.970Z,29.10
2019-02-18T12:51:18.004Z,28.70
2019-02-18T12:53:46.634Z,29.10
2019-02-18T12:56:15.349Z,28.70
2019-02-18T13:01:14.756Z,26.40
2019-02-18T13:03:43.425Z,27.00
2019-02-18T13:06:12.380Z,28.70
2019-02-18T13:08:41.130Z,29.40
2019-02-18T13:11:09.932Z,29.40
2019-02-18T13:13:38.791Z,30.30
2019-02-18T13:16:07.435Z,30.40
2019-02-18T13:18:36.043Z,30.50
2019-02-18T13:21:04.695Z,28.60
2019-02-18T13:23:33.375Z,27.60
2019-02-18T13:26:01.997Z,26.10
2019-02-18T13:28:31.567Z,26.50
2019-02-18T13:31:00.201Z,27.10
2019-02-18T13:33:28.811Z,27.80
2019-02-18T13:35:57.523Z,27.90
2019-02-18T13:38:26.215Z,28.20
2019-02-18T13:40:54.905Z,28.10
2019-02-18T13:43:23.519Z,29.00
2019-02-18T13:45:52.151Z,28.70
2019-02-18T13:48:20.851Z,28.90
2019-02-18T13:50:49.811Z,29.30
2019-02-18T13:53:18.460Z,29.40
2019-02-18T13:55:47.185Z,29.20
2019-02-18T13:58:16.075Z,29.40
2019-02-18T14:00:44.803Z,29.00
2019-02-18T14:03:13.499Z,27.90
2019-02-18T14:05:42.484Z,27.10
2019-02-18T14:08:11.194Z,27.30
2019-02-18T14:10:39.887Z,28.40
2019-02-18T14:13:08.855Z,27.50
2019-02-18T14:15:37.534Z,27.60
2019-02-18T14:18:06.224Z,26.70
2019-02-18T14:20:34.862Z,27.70
2019-02-18T14:23:03.583Z,28.70
2019-02-18T14:25:32.247Z,29.10
2019-02-18T14:28:00.920Z,28.70
2019-02-18T14:30:29.989Z,28.60
2019-02-18T14:32:58.642Z,28.00
2019-02-18T14:35:27.404Z,27.30
2019-02-18T14:37:56.031Z,28.40
2019-02-18T14:40:25.324Z,29.50
2019-02-18T14:42:54.375Z,29.40
2019-02-18T14:45:22.999Z,28.40
2019-02-18T14:47:51.790Z,27.60
2019-02-18T14:50:20.416Z,27.40
2019-02-18T14:52:50.164Z,28.50
2019-02-18T14:55:18.770Z,28.30
2019-02-18T14:57:47.568Z,28.20
2019-02-18T15:00:21.572Z,29.40
2019-02-18T15:02:54.756Z,28.00
2019-02-18T15:05:23.812Z,27.80
2019-02-18T15:07:52.465Z,26.80
2019-02-18T15:10:21.412Z,26.50
2019-02-18T15:12:50.052Z,26.80
2019-02-18T15:15:18.923Z,26.70
2019-02-18T15:17:47.666Z,27.60
2019-02-18T15:20:16.383Z,25.90
2019-02-18T15:22:45.011Z,24.90
2019-02-18T15:25:13.806Z,23.60
2019-02-18T15:27:42.449Z,22.80
2019-02-18T15:30:11.865Z,21.20
2019-02-18T15:32:40.842Z,20.20
2019-02-18T15:35:09.647Z,20.00
2019-02-18T15:37:38.423Z,19.50
2019-02-18T15:40:08.019Z,19.10
2019-02-18T15:42:42.165Z,18.40
2019-02-18T15:45:07.553Z,18.40
2019-02-18T15:47:36.369Z,18.30
2019-02-18T15:50:05.183Z,17.80
2019-02-18T15:52:33.904Z,17.50
2019-02-18T15:55:02.880Z,17.30
2019-02-18T15:57:31.543Z,17.40
2019-02-18T16:00:00.232Z,17.30
2019-02-18T16:02:29.136Z,17.20
2019-02-18T16:04:57.849Z,17.10
2019-02-18T16:07:26.802Z,16.90
2019-02-18T16:09:55.411Z,16.90
2019-02-18T16:12:24.128Z,16.80
2019-02-18T16:14:52.759Z,16.70
2019-02-18T16:17:21.682Z,16.50
2019-02-18T16:19:50.335Z,16.40
2019-02-18T16:22:19.248Z,16.20
2019-02-18T16:24:47.885Z,16.00
2019-02-18T16:27:16.549Z,15.90
2019-02-18T16:29:45.176Z,15.80
2019-02-18T16:32:13.970Z,15.70
2019-02-18T16:34:42.652Z,15.60
2019-02-18T16:37:11.574Z,15.50
2019-02-18T16:39:40.372Z,15.40
2019-02-18T16:42:09.477Z,15.30
2019-02-18T16:44:38.123Z,15.20
2019-02-18T16:47:06.859Z,15.10
2019-02-18T16:49:35.956Z,14.90
2019-02-18T16:52:05.071Z,14.80
2019-02-18T16:54:34.010Z,14.80
2019-02-18T16:57:02.707Z,14.70
2019-02-18T16:59:31.321Z,14.60
2019-02-18T17:02:00.029Z,14.50
2019-02-18T17:04:28.699Z,14.30
2019-02-18T17:06:57.340Z,14.20
2019-02-18T17:09:25.955Z,14.10
2019-02-18T17:11:54.619Z,14.00
2019-02-18T17:14:23.331Z,14.00
2019-02-18T17:16:51.987Z,13.90
2019-02-18T17:19:20.640Z,13.90
2019-02-18T17:21:49.274Z,13.80
2019-02-18T17:24:18.160Z,13.70
2019-02-18T17:26:46.995Z,13.70
2019-02-18T17:29:15.651Z,13.70
2019-02-18T17:31:44.353Z,13.60
2019-02-18T17:34:13.096Z,13.60
2019-02-18T17:36:41.752Z,13.50
2019-02-18T17:39:10.565Z,13.50
2019-02-18T17:41:39.198Z,13.40
2019-02-18T17:44:08.509Z,13.30
2019-02-18T17:46:37.144Z,13.20
2019-02-18T17:49:05.783Z,13.10
2019-02-18T17:51:34.484Z,13.10
2019-02-18T17:54:03.250Z,13.00
2019-02-18T17:56:32.265Z,12.90
2019-02-18T17:59:00.952Z,12.80
2019-02-18T18:01:29.599Z,12.70
2019-02-18T18:03:58.259Z,12.70
2019-02-18T18:06:27.217Z,12.60
2019-02-18T18:08:55.875Z,12.60
2019-02-18T18:11:24.947Z,12.50
2019-02-18T18:13:53.678Z,12.50
2019-02-18T18:16:22.293Z,12.40
2019-02-18T18:18:50.967Z,12.40
2019-02-18T18:21:19.611Z,12.30
2019-02-18T18:23:48.255Z,12.30
2019-02-18T18:26:16.931Z,12.40
2019-02-18T18:28:45.842Z,12.40
2019-02-18T18:31:14.499Z,12.30
2019-02-18T18:33:43.183Z,12.30
2019-02-18T18:36:12.115Z,12.30
2019-02-18T18:38:40.856Z,12.30
2019-02-18T18:41:09.534Z,12.30
2019-02-18T18:43:38.622Z,12.20
2019-02-18T18:46:07.371Z,12.20
2019-02-18T18:48:36.172Z,12.10
2019-02-18T18:51:04.771Z,12.10
2019-02-18T18:53:33.434Z,12.10
2019-02-18T18:56:02.133Z,12.10
2019-02-18T18:58:31.051Z,12.10
2019-02-18T19:00:59.712Z,12.10
2019-02-18T19:03:28.478Z,12.10
2019-02-18T19:05:57.519Z,12.00
2019-02-18T19:08:26.195Z,11.90
2019-02-18T19:10:54.834Z,11.90
2019-02-18T19:13:26.795Z,11.80
2019-02-18T19:15:55.434Z,11.80
2019-02-18T19:18:24.067Z,11.70
2019-02-18T19:20:52.701Z,11.70
2019-02-18T19:23:21.677Z,11.70
2019-02-18T19:25:50.338Z,11.60
2019-02-18T19:28:19.098Z,11.60
2019-02-18T19:30:47.804Z,11.60
2019-02-18T19:33:16.520Z,11.50
2019-02-18T19:35:45.203Z,11.50
2019-02-18T19:38:13.841Z,11.40
2019-02-18T19:40:42.503Z,11.40
2019-02-18T19:43:11.136Z,11.40
2019-02-18T19:45:39.819Z,11.40
2019-02-18T19:48:08.484Z,11.40
2019-02-18T19:50:37.171Z,11.30
2019-02-18T19:53:05.799Z,11.30
2019-02-18T19:55:34.543Z,11.30
2019-02-18T19:58:03.165Z,11.30
2019-02-18T20:00:31.816Z,11.30
2019-02-18T20:03:00.722Z,11.30
2019-02-18T20:05:29.393Z,11.30
2019-02-18T20:07:58.045Z,11.20
2019-02-18T20:10:26.762Z,11.20
2019-02-18T20:12:55.636Z,11.20
2019-02-18T20:15:24.285Z,11.20
2019-02-18T20:17:53.003Z,11.20
2019-02-18T20:20:21.730Z,11.20
2019-02-18T20:22:50.358Z,11.30
2019-02-18T20:25:19.107Z,11.40
2019-02-18T20:27:48.286Z,11.30
2019-02-18T20:30:17.349Z,11.30
2019-02-18T20:32:45.971Z,11.20
2019-02-18T20:35:14.708Z,11.20
2019-02-18T20:37:43.470Z,11.10
2019-02-18T20:40:12.227Z,11.10
2019-02-18T20:42:41.119Z,11.20
2019-02-18T20:45:10.631Z,11.20
2019-02-18T20:47:39.255Z,11.20
2019-02-18T20:50:08.998Z,11.20
2019-02-18T20:52:37.636Z,11.20
2019-02-18T20:55:07.641Z,11.10
2019-02-18T20:57:36.664Z,11.20
2019-02-18T21:00:09.253Z,11.10
2019-02-18T21:02:38.161Z,11.10
2019-02-18T21:05:06.967Z,11.10
2019-02-18T21:07:35.600Z,11.10
2019-02-18T21:10:04.503Z,11.10
2019-02-18T21:12:33.126Z,11.10
2019-02-18T21:15:01.789Z,11.10
2019-02-18T21:17:30.657Z,11.00
2019-02-18T21:19:59.343Z,11.00
2019-02-18T21:22:27.964Z,10.90
2019-02-18T21:24:56.630Z,10.90
2019-02-18T21:27:25.611Z,10.80
2019-02-18T21:29:54.260Z,10.80
2019-02-18T21:32:22.986Z,10.80
2019-02-18T21:34:51.648Z,10.70
2019-02-18T21:37:20.462Z,10.70
2019-02-18T21:39:49.200Z,10.70
2019-02-18T21:42:18.547Z,10.60
2019-02-18T21:44:47.160Z,10.60
2019-02-18T21:47:15.841Z,10.50
2019-02-18T21:49:44.787Z,10.50
2019-02-18T21:52:13.968Z,10.50
2019-02-18T21:54:42.575Z,10.40
2019-02-18T21:57:11.636Z,10.40
2019-02-18T21:59:40.327Z,10.40
2019-02-18T22:02:09.131Z,10.40
2019-02-18T22:04:37.793Z,10.40
2019-02-18T22:07:06.590Z,10.40
2019-02-18T22:09:35.231Z,10.30
2019-02-18T22:12:03.963Z,10.20
2019-02-18T22:14:33.795Z,10.20
2019-02-18T22:17:03.455Z,10.10
2019-02-18T22:19:32.091Z,10.00
2019-02-18T22:22:00.840Z,9.90
2019-02-18T22:24:29.603Z,9.90
2019-02-18T22:26:58.284Z,9.70
2019-02-18T22:29:27.447Z,9.70
2019-02-18T22:31:56.078Z,9.60
2019-02-18T22:34:24.764Z,9.60
2019-02-18T22:36:53.435Z,9.60
2019-02-18T22:39:22.069Z,9.60
2019-02-18T22:41:50.693Z,9.60
2019-02-18T22:44:19.350Z,9.60
2019-02-18T22:46:48.479Z,9.60
2019-02-18T22:49:17.196Z,9.60
2019-02-18T22:51:46.442Z,9.50
2019-02-18T22:54:15.119Z,9.50
2019-02-18T22:56:43.815Z,9.50
2019-02-18T22:59:12.459Z,9.50
2019-02-18T23:01:42.578Z,9.50
2019-02-18T23:04:11.394Z,9.50
2019-02-18T23:06:40.144Z,9.50
2019-02-18T23:09:12.381Z,9.50
2019-02-18T23:11:41.036Z,9.50
2019-02-18T23:14:09.747Z,9.40
2019-02-18T23:16:38.379Z,9.40
2019-02-18T23:19:07.300Z,9.30
2019-02-18T23:21:36.003Z,9.40
2019-02-18T23:24:04.681Z,9.30
2019-02-18T23:26:33.319Z,10.20
2019-02-18T23:29:01.977Z,10.80
2019-02-18T23:31:30.895Z,10.40
2019-02-18T23:33:59.517Z,10.00
2019-02-18T23:36:28.181Z,9.90
2019-02-18T23:38:57.095Z,9.80
2019-02-18T23:41:25.867Z,9.70
2019-02-18T23:44:00.846Z,9.70
2019-02-18T23:46:40.135Z,9.70
2019-02-18T23:49:30.159Z,9.70
2019-02-18T23:52:05.572Z,9.70
2019-02-18T23:54:57.026Z,9.80
2019-02-18T23:57:35.302Z,9.80
